Terminal Aerodrome Forecast
Issued by NWS

Home | Current Version | Previous Version | Text Only | Print | Product List | Glossary On
Versions: 1 2 3 4 5 6 7 8 9 10 11 12 13 14 15 16 17 18 19 20 21 22 23 24 25 26 27 28 29 30 31 32 33 34 35 36 37
000
FTUS42 KRAH 020300 AAA
TAFRWI
TAF AMD
KRWI 020300Z 0203/0224 VRB05KT P6SM OVC004
     FM021400 VRB05KT P6SM VCSH BKN015
     FM021700 VRB05KT 3SM SHRA BKN025 PROB30 0218/0222 TSRA
      BKN009CB=

USA.gov is the U.S. government's official web portal to all federal, state and local government web resources and services.